Time;durP1;ratioP1;P1;durP2;ratioP2;P2;SDS_P1;SDS_P2;PMS_P1;PMS_P2;Temp;Humidity;BMP_temperature;BMP_pressure;BME280_temperature;BME280_humidity;BME280_pressure;Samples;Min_cycle;Max_cycle;Signal;HPM_P1;HPM_P2
2022/07/30 00:01:38;;;;;;;;;4.00;3.00;;;;;19.13;64.10;101863.91;4983776;28;8818;-67
2022/07/30 00:04:04;;;;;;;;;5.25;5.25;;;;;19.11;63.94;101866.03;5002279;28;8827;-65
2022/07/30 00:06:31;;;;;;;;;6.50;6.25;;;;;19.09;64.03;101860.81;4985099;28;8851;-66
2022/07/30 00:08:58;;;;;;;;;6.33;5.67;;;;;19.05;63.92;101856.88;4979305;28;8893;-66
2022/07/30 00:11:25;;;;;;;;;8.75;5.50;;;;;19.01;64.24;101853.75;4985626;28;8912;-65
2022/07/30 00:13:53;;;;;;;;;8.00;8.00;;;;;19.01;64.33;101850.19;4993377;28;9584;-67
2022/07/30 00:16:20;;;;;;;;;6.75;6.75;;;;;19.00;64.33;101841.16;4979007;28;8857;-66
2022/07/30 00:18:47;;;;;;;;;8.00;7.00;;;;;19.02;64.38;101849.13;5004791;28;9508;-66
2022/07/30 00:21:13;;;;;;;;;11.00;7.50;;;;;18.99;64.08;101835.91;4991556;28;8819;-67
2022/07/30 00:24:00;;;;;;;;;5.50;5.50;;;;;18.97;64.29;101836.16;4993551;28;9565;-66
2022/07/30 00:26:27;;;;;;;;;7.50;6.50;;;;;18.97;64.17;101838.06;4995210;28;8829;-66
2022/07/30 00:28:54;;;;;;;;;4.00;4.00;;;;;18.95;64.24;101834.69;5004051;28;8889;-66
2022/07/30 00:31:20;;;;;;;;;4.00;4.00;;;;;18.94;64.05;101831.13;4992803;28;9568;-67
2022/07/30 00:33:47;;;;;;;;;8.00;8.00;;;;;18.95;64.25;101831.97;4982848;28;8827;-67
2022/07/30 00:36:14;;;;;;;;;8.67;8.67;;;;;18.91;64.16;101828.03;4992576;28;8865;-66
2022/07/30 00:38:40;;;;;;;;;6.75;6.00;;;;;18.88;64.43;101825.75;4999914;28;8931;-67
2022/07/30 00:41:06;;;;;;;;;4.67;4.67;;;;;18.91;64.26;101830.75;4995768;28;8891;-67
2022/07/30 00:43:34;;;;;;;;;6.50;6.50;;;;;18.90;64.20;101827.19;4956636;28;8920;-67
2022/07/30 00:46:00;;;;;;;;;4.00;4.00;;;;;18.89;64.23;101822.81;4991506;28;9530;-67
2022/07/30 00:48:27;;;;;;;;;4.25;4.25;;;;;18.90;63.87;101829.09;4998373;28;8947;-66
2022/07/30 00:50:53;;;;;;;;;4.00;4.00;;;;;18.85;63.80;101826.22;4986791;28;8817;-67
2022/07/30 00:53:20;;;;;;;;;6.75;6.75;;;;;18.82;64.07;101822.03;4973691;28;8817;-66
2022/07/30 00:55:46;;;;;;;;;6.25;6.25;;;;;18.81;64.03;101825.81;4956523;28;8861;-65
2022/07/30 00:58:13;;;;;;;;;5.25;3.00;;;;;18.81;63.75;101828.56;4973793;28;8887;-66
2022/07/30 01:00:39;;;;;;;;;7.50;6.25;;;;;18.81;63.87;101819.53;4979629;28;9534;-66
2022/07/30 01:03:06;;;;;;;;;4.00;4.00;;;;;18.82;63.69;101826.66;4987391;28;8855;-66
2022/07/30 01:05:32;;;;;;;;;5.67;5.67;;;;;18.81;63.52;101814.91;4997268;28;8822;-66
2022/07/30 01:07:59;;;;;;;;;6.33;6.00;;;;;18.80;63.61;101813.25;4992643;28;8901;-66
2022/07/30 01:10:25;;;;;;;;;5.00;4.25;;;;;18.81;63.88;101819.53;4981375;28;8905;-66
2022/07/30 01:12:53;;;;;;;;;6.33;6.33;;;;;18.78;63.75;101818.91;4982033;28;9514;-67
2022/07/30 01:15:20;;;;;;;;;4.75;4.75;;;;;18.76;63.75;101823.78;4977616;28;8844;-66
2022/07/30 01:17:49;;;;;;;;;2.75;2.75;;;;;18.76;63.57;101825.69;4986529;28;8949;-65
2022/07/30 01:20:25;;;;;;;;;4.50;4.50;;;;;18.74;63.77;101830.50;4995629;28;8906;-66
2022/07/30 01:23:06;;;;;;;;;8.00;6.50;;;;;18.71;63.67;101817.31;4991620;28;8851;-67
2022/07/30 01:26:15;;;;;;;;;6.75;3.00;;;;;18.69;63.71;101824.88;4997350;28;8846;-66
2022/07/30 01:28:47;;;;;;;;;4.00;4.00;;;;;18.67;63.79;101821.50;4965371;28;8831;-66
2022/07/30 01:31:15;;;;;;;;;2.00;2.00;;;;;18.64;64.08;101824.72;4986468;28;8838;-67
2022/07/30 01:33:46;;;;;;;;;5.50;3.00;;;;;18.62;63.97;101824.91;5001791;28;8932;-66
2022/07/30 01:36:15;;;;;;;;;4.25;3.00;;;;;18.63;64.20;101817.56;5000381;28;8831;-66
2022/07/30 01:38:46;;;;;;;;;3.00;3.00;;;;;18.61;64.03;101825.97;5009527;28;8894;-66
2022/07/30 01:41:14;;;;;;;;;7.33;7.33;;;;;18.60;64.21;101823.50;5011036;28;8793;-66
2022/07/30 01:43:44;;;;;;;;;7.00;7.00;;;;;18.57;64.32;101821.19;4989418;28;8999;-66
2022/07/30 01:46:12;;;;;;;;;6.25;5.50;;;;;18.57;64.10;101827.50;4989303;28;8850;-66
2022/07/30 01:48:42;;;;;;;;;3.00;3.00;;;;;18.56;64.11;101833.19;4985784;28;8858;-65
2022/07/30 01:51:12;;;;;;;;;4.75;4.75;;;;;18.54;64.10;101827.94;4999307;28;8804;-67
2022/07/30 01:53:45;;;;;;;;;4.00;4.00;;;;;18.53;64.19;101829.81;4993303;28;8894;-66
2022/07/30 01:56:14;;;;;;;;;4.00;4.00;;;;;18.51;64.08;101822.91;5010433;28;9062;-66
2022/07/30 01:58:45;;;;;;;;;5.50;5.50;;;;;18.48;64.17;101826.09;4990430;28;8819;-66
2022/07/30 02:01:18;;;;;;;;;6.50;3.75;;;;;18.45;64.34;101819.19;4984808;28;8897;-67
2022/07/30 02:03:45;;;;;;;;;3.50;3.00;;;;;18.43;64.43;101820.47;4984583;28;8948;-66
2022/07/30 02:06:25;;;;;;;;;5.50;5.50;;;;;18.36;64.28;101817.81;4995856;28;8945;-66
2022/07/30 02:08:55;;;;;;;;;4.67;4.00;;;;;18.34;64.49;101813.63;4975483;28;8823;-66
2022/07/30 02:14:18;;;;;;;;;7.25;4.00;;;;;18.28;64.42;101823.53;4989380;28;9706;-66
2022/07/30 02:16:51;;;;;;;;;6.00;6.00;;;;;18.24;64.65;101833.22;4993053;28;8824;-66
2022/07/30 02:19:25;;;;;;;;;4.00;4.00;;;;;18.21;64.65;101831.75;5002058;28;8921;-67
2022/07/30 02:22:11;;;;;;;;;10.00;9.67;;;;;18.17;64.64;101835.16;4991222;28;9033;-66
2022/07/30 02:24:42;;;;;;;;;5.00;5.00;;;;;18.11;64.60;101838.72;4974256;28;9903;-66
2022/07/30 02:27:19;;;;;;;;;4.67;4.67;;;;;18.09;64.84;101843.59;4973789;28;8935;-67
2022/07/30 02:29:47;;;;;;;;;6.33;5.67;;;;;18.03;64.71;101839.88;4991772;28;9345;-66
2022/07/30 02:32:19;;;;;;;;;5.33;5.00;;;;;18.00;65.26;101830.22;4980612;28;9173;-67
2022/07/30 02:34:50;;;;;;;;;7.00;7.00;;;;;18.00;65.13;101840.28;4988790;28;9000;-66
2022/07/30 02:37:22;;;;;;;;;7.00;7.00;;;;;17.96;65.13;101829.00;5006015;28;9154;-66
2022/07/30 02:40:13;;;;;;;;;8.00;8.00;;;;;17.93;65.24;101836.75;4995003;28;8987;-66
2022/07/30 02:42:42;;;;;;;;;6.67;5.33;;;;;17.88;65.23;101831.16;4990142;28;9132;-65
2022/07/30 02:45:14;;;;;;;;;3.00;3.00;;;;;17.83;65.47;101833.69;4980800;28;9079;-66
2022/07/30 02:47:42;;;;;;;;;9.67;7.33;;;;;17.80;65.53;101834.97;5004943;28;9100;-66
2022/07/30 02:50:11;;;;;;;;;11.00;7.67;;;;;17.79;65.67;101833.28;4999012;28;9231;-66
2022/07/30 02:52:40;;;;;;;;;7.33;7.00;;;;;17.77;65.61;101827.22;4994623;28;9157;-66
2022/07/30 02:55:09;;;;;;;;;7.67;7.00;;;;;17.74;65.47;101833.94;4980247;28;9195;-66
2022/07/30 02:57:40;;;;;;;;;8.33;8.00;;;;;17.72;65.72;101825.13;4990053;28;8986;-66
2022/07/30 03:00:10;;;;;;;;;6.33;6.33;;;;;17.69;65.72;101822.81;4971041;28;9057;-66
2022/07/30 03:02:38;;;;;;;;;6.67;6.33;;;;;17.68;65.69;101817.59;4982698;28;9214;-66
2022/07/30 03:05:12;;;;;;;;;6.00;6.00;;;;;17.66;65.68;101828.72;4990753;28;9061;-67
2022/07/30 03:07:40;;;;;;;;;8.00;8.00;;;;;17.64;66.05;101828.09;4990894;28;9055;-66
2022/07/30 03:10:07;;;;;;;;;9.33;9.33;;;;;17.59;65.73;101822.47;5010282;28;9230;-66
2022/07/30 03:12:36;;;;;;;;;8.33;8.00;;;;;17.55;65.75;101824.78;4965606;28;9360;-66
2022/07/30 03:15:02;;;;;;;;;7.33;6.33;;;;;17.53;65.88;101821.44;4957828;28;9208;-68
2022/07/30 03:17:36;;;;;;;;;9.00;9.00;;;;;17.50;65.96;101819.16;4999942;28;9066;-66
2022/07/30 03:20:07;;;;;;;;;6.67;6.67;;;;;17.47;66.01;101813.31;4985107;28;9334;-66
2022/07/30 03:22:40;;;;;;;;;8.67;8.67;;;;;17.44;66.19;101820.00;4999601;28;9146;-66
2022/07/30 03:25:09;;;;;;;;;8.00;8.00;;;;;17.43;66.39;101822.97;4993285;28;9149;-66
2022/07/30 03:27:37;;;;;;;;;8.00;8.00;;;;;17.42;66.31;101816.69;4993585;28;9147;-66
2022/07/30 03:30:05;;;;;;;;;7.00;7.00;;;;;17.42;66.70;101826.72;4987195;28;9283;-66
2022/07/30 03:32:33;;;;;;;;;8.67;7.00;;;;;17.40;66.66;101818.78;4970413;28;9290;-66
2022/07/30 03:35:00;;;;;;;;;12.00;9.00;;;;;17.40;66.25;101826.94;4986943;28;9958;-66
2022/07/30 03:37:34;;;;;;;;;7.33;7.33;;;;;17.37;66.44;101821.09;4995040;28;9293;-66
2022/07/30 03:40:02;;;;;;;;;9.00;8.00;;;;;17.36;66.70;101824.88;5003453;28;10012;-66
2022/07/30 03:42:30;;;;;;;;;8.33;8.33;;;;;17.33;66.63;101828.84;4993632;28;9392;-66
2022/07/30 03:44:58;;;;;;;;;6.00;6.00;;;;;17.33;66.48;101834.28;4996882;28;9222;-65
2022/07/30 03:47:26;;;;;;;;;8.33;5.67;;;;;17.31;66.22;101836.41;4997513;28;10041;-64
2022/07/30 03:49:53;;;;;;;;;6.33;6.00;;;;;17.30;66.35;101837.47;4986601;28;9302;-66
2022/07/30 03:52:19;;;;;;;;;11.00;10.00;;;;;17.30;66.46;101841.00;5009167;28;9302;-66
2022/07/30 03:54:46;;;;;;;;;11.00;11.00;;;;;17.31;66.26;101839.13;5012892;28;9380;-66
2022/07/30 03:57:45;;;;;;;;;8.33;8.33;;;;;17.31;66.65;101833.69;4993990;28;9378;-66
2022/07/30 04:00:14;;;;;;;;;10.00;8.67;;;;;17.30;66.79;101846.47;4996041;28;9366;-66
2022/07/30 04:02:46;;;;;;;;;12.00;11.00;;;;;17.30;66.51;101845.63;4968506;28;9260;-66
2022/07/30 04:05:45;;;;;;;;;8.33;7.33;;;;;17.27;66.74;101836.00;4998645;28;9372;-66
2022/07/30 04:08:11;;;;;;;;;11.00;11.00;;;;;17.28;67.12;101837.66;4986735;28;9221;-66
2022/07/30 04:10:40;;;;;;;;;8.00;8.00;;;;;17.29;67.13;101844.75;4980253;28;9425;-66
2022/07/30 04:13:25;;;;;;;;;9.33;8.00;;;;;17.29;66.76;101839.31;4975271;28;9857;-66
2022/07/30 04:15:57;;;;;;;;;9.00;7.00;;;;;17.28;67.09;101836.81;4957436;28;9256;-66
2022/07/30 04:18:49;;;;;;;;;11.67;11.00;;;;;17.27;67.07;101846.03;4999722;28;9305;-65
2022/07/30 04:21:19;;;;;;;;;11.33;11.33;;;;;17.25;66.98;101842.69;5007843;28;9524;-66
2022/07/30 04:23:48;;;;;;;;;8.00;8.00;;;;;17.22;66.87;101846.69;4994722;28;9438;-66
2022/07/30 04:26:32;;;;;;;;;7.33;7.33;;;;;17.22;67.05;101854.84;4993057;28;10004;-64
2022/07/30 04:29:00;;;;;;;;;10.00;7.33;;;;;17.20;66.86;101851.50;4987071;28;8947;-66
2022/07/30 04:31:28;;;;;;;;;8.00;7.00;;;;;17.20;66.65;101853.38;4960409;28;9288;-66
2022/07/30 04:34:03;;;;;;;;;13.33;11.67;;;;;17.21;67.09;101855.88;4997985;28;9396;-65
2022/07/30 04:36:38;;;;;;;;;12.00;11.00;;;;;17.23;66.78;101855.69;4983404;28;9164;-64
2022/07/30 04:39:04;;;;;;;;;11.33;9.33;;;;;17.23;67.13;101853.78;4991195;28;9045;-66
2022/07/30 04:41:31;;;;;;;;;7.00;7.00;;;;;17.23;66.98;101855.69;4977622;28;9996;-65
2022/07/30 04:44:31;;;;;;;;;14.00;10.00;;;;;17.23;67.04;101853.78;4991357;28;9145;-63
2022/07/30 04:47:22;;;;;;;;;7.33;7.33;;;;;17.22;67.04;101854.03;5002040;28;10013;-64
2022/07/30 04:50:07;;;;;;;;;8.67;8.33;;;;;17.18;67.18;101850.88;4997295;28;9135;-66
2022/07/30 04:52:35;;;;;;;;;11.33;10.33;;;;;17.17;67.09;101854.63;4985594;28;9218;-66
2022/07/30 04:55:06;;;;;;;;;10.67;10.00;;;;;17.19;67.41;101857.16;4974401;28;9153;-64
2022/07/30 04:57:36;;;;;;;;;8.67;8.67;;;;;17.19;67.09;101860.72;4974092;28;9133;-63
2022/07/30 05:00:05;;;;;;;;;9.33;9.00;;;;;17.19;67.38;101859.88;4988352;28;9954;-64
2022/07/30 05:02:38;;;;;;;;;10.33;10.33;;;;;17.21;67.22;101863.22;5000995;28;9310;-64
2022/07/30 05:05:07;;;;;;;;;8.33;8.33;;;;;17.22;67.53;101864.91;5014389;28;9301;-64
2022/07/30 05:07:36;;;;;;;;;7.00;6.67;;;;;17.25;67.32;101859.84;4996439;28;9309;-66
2022/07/30 05:10:06;;;;;;;;;8.00;8.00;;;;;17.27;67.30;101860.47;5012977;28;9215;-63
2022/07/30 05:12:37;;;;;;;;;8.00;8.00;;;;;17.28;67.27;101855.88;4985538;28;9298;-64
2022/07/30 05:15:06;;;;;;;;;8.67;8.67;;;;;17.31;67.56;101866.34;5006955;28;9210;-62
2022/07/30 05:17:33;;;;;;;;;10.67;8.00;;;;;17.31;67.48;101863.63;4996255;28;9224;-64
2022/07/30 05:20:04;;;;;;;;;7.33;7.00;;;;;17.33;67.40;101866.09;4996463;28;9189;-64
2022/07/30 05:22:44;;;;;;;;;8.00;8.00;;;;;17.34;67.49;101867.78;4976480;28;9101;-63
2022/07/30 05:25:17;;;;;;;;;5.00;5.00;;;;;17.35;67.42;101870.31;4975880;28;9273;-64
2022/07/30 05:27:44;;;;;;;;;6.67;6.00;;;;;17.38;67.53;101869.88;5003406;28;9166;-65
2022/07/30 05:30:10;;;;;;;;;8.67;8.33;;;;;17.40;67.53;101877.81;4965763;28;9206;-64
2022/07/30 05:32:42;;;;;;;;;9.33;8.00;;;;;17.41;67.54;101882.22;4991139;28;9262;-64
2022/07/30 05:35:11;;;;;;;;;9.67;9.67;;;;;17.43;67.45;101891.00;4990192;28;9228;-64
2022/07/30 05:37:38;;;;;;;;;7.00;6.33;;;;;17.45;67.71;101892.44;4974566;28;9468;-65
2022/07/30 05:40:05;;;;;;;;;10.33;8.33;;;;;17.47;67.49;101890.38;4961924;28;9084;-65
2022/07/30 05:42:50;;;;;;;;;6.00;6.00;;;;;17.50;67.67;101898.09;4999839;28;9061;-64
2022/07/30 05:45:17;;;;;;;;;8.00;6.67;;;;;17.51;67.47;101901.66;4981427;28;9053;-65
2022/07/30 05:47:44;;;;;;;;;6.00;6.00;;;;;17.52;67.72;101898.72;4973375;28;9065;-65
2022/07/30 05:50:11;;;;;;;;;4.00;4.00;;;;;17.56;67.78;101899.13;4981240;28;9068;-65
2022/07/30 05:52:38;;;;;;;;;7.33;7.00;;;;;17.58;67.43;101902.44;4972457;28;9084;-65
2022/07/30 05:55:22;;;;;;;;;8.00;8.00;;;;;17.63;67.61;101899.13;4978257;28;9047;-65
2022/07/30 05:57:59;;;;;;;;;8.00;8.00;;;;;17.65;67.49;101895.09;4990629;28;9172;-65
2022/07/30 06:00:25;;;;;;;;;7.00;6.00;;;;;17.74;67.50;101902.03;4974724;28;9098;-64
2022/07/30 06:02:53;;;;;;;;;6.33;6.00;;;;;17.87;67.29;101903.03;4981420;28;8982;-65
2022/07/30 06:05:56;;;;;;;;;6.00;6.00;;;;;18.01;67.03;101902.72;5007024;28;9047;-65
2022/07/30 06:08:23;;;;;;;;;3.00;3.00;;;;;18.15;66.62;101900.78;5009305;28;9019;-65
2022/07/30 06:10:49;;;;;;;;;2.00;2.00;;;;;18.28;65.84;101897.97;4992080;28;9104;-66
2022/07/30 06:13:16;;;;;;;;;7.50;7.50;;;;;18.41;65.45;101904.38;4992306;28;8985;-65
2022/07/30 06:15:42;;;;;;;;;4.25;4.00;;;;;18.54;64.81;101898.81;4975812;28;8847;-65
2022/07/30 06:18:09;;;;;;;;;7.00;3.00;;;;;18.63;64.41;101902.09;4990847;28;9676;-65
2022/07/30 06:20:40;;;;;;;;;2.00;2.00;;;;;18.72;63.46;101900.84;4990958;28;9001;-65
2022/07/30 06:23:15;;;;;;;;;3.00;2.50;;;;;18.79;63.24;101893.41;4966770;28;8846;-65
2022/07/30 06:25:57;;;;;;;;;2.25;2.00;;;;;18.89;62.88;101899.19;4993030;28;8826;-65
2022/07/30 06:28:24;;;;;;;;;2.75;2.75;;;;;19.01;62.33;101896.56;5000995;28;8927;-65
2022/07/30 06:31:07;;;;;;;;;2.00;2.00;;;;;19.10;61.87;101902.56;4991159;28;8809;-65
2022/07/30 06:33:34;;;;;;;;;0.00;0.00;;;;;19.10;61.26;101897.94;5012053;28;8824;-65
2022/07/30 06:36:01;;;;;;;;;2.00;2.00;;;;;19.10;61.22;101906.13;4991854;28;8865;-65
2022/07/30 06:38:33;;;;;;;;;2.00;2.00;;;;;19.06;60.48;101906.81;4999313;28;8821;-64
2022/07/30 06:41:08;;;;;;;;;2.75;2.00;;;;;19.05;59.85;101903.25;4981785;28;8915;-65
2022/07/30 06:43:47;;;;;;;;;2.00;2.00;;;;;19.03;59.57;101905.34;4973537;28;8811;-65
2022/07/30 06:46:33;;;;;;;;;2.00;2.00;;;;;18.98;58.64;101902.47;4964488;28;8873;-66
2022/07/30 06:49:00;;;;;;;;;3.00;2.75;;;;;18.91;58.99;101896.25;4978625;28;8828;-64
2022/07/30 06:51:27;;;;;;;;;3.00;3.00;;;;;18.85;59.12;101899.88;4995109;28;8821;-64
2022/07/30 06:53:54;;;;;;;;;3.50;3.50;;;;;18.81;59.15;101891.31;4998407;28;8952;-64
2022/07/30 06:56:36;;;;;;;;;3.50;3.50;;;;;18.94;60.53;101902.09;5002555;28;8938;-64
2022/07/30 06:59:04;;;;;;;;;3.00;1.50;;;;;18.97;58.88;101901.66;4987795;28;8825;-64
2022/07/30 07:01:52;;;;;;;;;1.75;1.75;;;;;18.98;58.53;101906.03;5012970;28;8805;-64
2022/07/30 07:04:20;;;;;;;;;2.75;2.00;;;;;18.96;58.18;101905.44;5011775;28;8882;-64
2022/07/30 07:06:46;;;;;;;;;1.75;1.75;;;;;18.94;58.30;101901.25;4977297;28;8837;-65
2022/07/30 07:09:22;;;;;;;;;1.75;1.00;;;;;18.94;58.37;101898.53;4956300;28;9106;-65
2022/07/30 07:12:03;;;;;;;;;2.25;2.25;;;;;18.95;58.10;101900.19;4997983;28;8841;-64
2022/07/30 07:14:30;;;;;;;;;1.75;1.75;;;;;18.99;58.21;101894.06;4996390;28;8809;-65
2022/07/30 07:16:56;;;;;;;;;3.00;2.00;;;;;19.01;58.33;101897.41;4994875;28;8843;-65
2022/07/30 07:19:41;;;;;;;;;2.75;2.75;;;;;19.02;58.37;101893.59;4974738;28;8813;-65
2022/07/30 07:22:31;;;;;;;;;2.00;2.00;;;;;19.10;58.85;101902.56;4970952;28;8891;-63
2022/07/30 07:24:58;;;;;;;;;3.75;2.50;;;;;19.28;59.74;101899.84;4976191;28;8826;-58
2022/07/30 07:27:28;;;;;;;;;1.00;1.00;;;;;19.36;58.06;101901.44;4981517;28;8817;-65
2022/07/30 07:29:58;;;;;;;;;1.75;1.75;;;;;19.38;57.52;101908.38;4999549;28;8829;-65
2022/07/30 07:32:33;;;;;;;;;3.50;2.00;;;;;19.38;57.23;101902.91;4981669;28;8848;-65
2022/07/30 07:35:00;;;;;;;;;1.00;1.00;;;;;19.36;57.31;101901.44;5007737;28;8949;-64
2022/07/30 07:37:27;;;;;;;;;2.75;2.00;;;;;19.35;57.05;101908.81;4979384;28;8873;-64
2022/07/30 07:39:55;;;;;;;;;2.00;2.00;;;;;19.31;57.21;101904.03;4988659;28;8828;-65
2022/07/30 07:42:22;;;;;;;;;1.25;1.25;;;;;19.31;57.41;101910.31;5003622;28;8839;-66
2022/07/30 07:44:50;;;;;;;;;1.75;1.75;;;;;19.31;57.09;101913.06;4979657;28;8843;-65
2022/07/30 07:47:17;;;;;;;;;3.50;3.50;;;;;19.28;57.25;101899.84;4994495;28;8857;-64
2022/07/30 07:49:56;;;;;;;;;1.00;1.00;;;;;19.29;57.67;101909.72;4979074;28;8839;-65
2022/07/30 07:52:23;;;;;;;;;2.25;2.00;;;;;19.35;57.68;101913.44;4999890;28;8858;-64
2022/07/30 07:54:49;;;;;;;;;3.25;3.25;;;;;19.39;57.43;101914.66;4998903;28;8820;-65
2022/07/30 07:57:16;;;;;;;;;2.00;1.75;;;;;19.34;57.30;101912.59;4984305;28;8973;-65
2022/07/30 07:59:45;;;;;;;;;2.00;2.00;;;;;19.33;56.57;101910.94;4995447;28;8819;-65
2022/07/30 08:02:19;;;;;;;;;2.00;2.00;;;;;19.34;56.13;101914.50;4989814;28;8838;-65
2022/07/30 08:04:57;;;;;;;;;1.00;1.00;;;;;19.33;55.88;101910.13;4964809;28;9542;-65
2022/07/30 08:07:24;;;;;;;;;1.50;1.00;;;;;19.43;55.62;101921.34;4996141;28;8821;-65
2022/07/30 08:10:03;;;;;;;;;2.00;2.00;;;;;19.44;55.39;101918.38;4997030;28;8843;-65
2022/07/30 08:12:58;;;;;;;;;2.00;1.25;;;;;19.45;55.44;101919.22;4943299;28;8856;-65
2022/07/30 08:15:44;;;;;;;;;2.00;2.00;;;;;19.52;55.41;101919.97;5002787;28;8803;-65
2022/07/30 08:18:40;;;;;;;;;2.00;2.00;;;;;19.58;54.97;101918.25;4936968;28;8854;-65
2022/07/30 08:21:25;;;;;;;;;2.00;2.00;;;;;19.61;54.79;101921.38;4993543;28;8815;-65
2022/07/30 08:23:51;;;;;;;;;2.00;1.00;;;;;19.61;53.74;101915.06;4997493;28;9550;-64
2022/07/30 08:26:18;;;;;;;;;3.00;2.00;;;;;19.63;53.57;101912.94;4975298;28;8897;-65
2022/07/30 08:28:45;;;;;;;;;3.50;2.00;;;;;19.68;53.42;101911.19;4985911;28;8803;-65
2022/07/30 08:31:12;;;;;;;;;2.25;2.25;;;;;19.72;53.61;101912.41;4986121;28;8811;-65
2022/07/30 08:33:38;;;;;;;;;2.00;2.00;;;;;19.74;53.35;101914.91;4995397;28;8953;-65
2022/07/30 08:36:06;;;;;;;;;1.50;1.50;;;;;19.75;53.20;101919.31;4988252;28;9533;-63
2022/07/30 08:38:37;;;;;;;;;3.00;3.00;;;;;19.83;52.82;101915.44;4977670;28;8825;-65
2022/07/30 08:41:05;;;;;;;;;2.00;2.00;;;;;19.86;52.68;101915.00;4960640;28;8885;-64
2022/07/30 08:43:32;;;;;;;;;1.00;1.00;;;;;19.87;52.44;101917.47;4976515;28;9606;-65
2022/07/30 08:46:00;;;;;;;;;2.00;1.25;;;;;19.92;52.95;101908.59;4993501;28;8823;-64
2022/07/30 08:48:46;;;;;;;;;1.00;1.00;;;;;19.99;53.09;101904.69;4994279;28;8826;-65
2022/07/30 08:51:16;;;;;;;;;2.00;2.00;;;;;20.06;52.45;101901.06;4986003;28;8812;-65
2022/07/30 08:54:05;;;;;;;;;2.00;2.00;;;;;20.13;52.79;101918.19;5001481;28;8868;-65
2022/07/30 08:56:32;;;;;;;;;2.25;1.75;;;;;20.13;52.79;101920.91;5006639;28;8859;-65
2022/07/30 08:59:00;;;;;;;;;4.00;2.00;;;;;20.14;52.92;101923.44;5003579;28;8886;-65
2022/07/30 09:01:27;;;;;;;;;2.25;1.75;;;;;20.12;53.28;101930.19;5008642;28;8844;-65
2022/07/30 09:03:55;;;;;;;;;1.00;1.00;;;;;20.17;52.86;101931.16;5011331;28;9553;-65
2022/07/30 09:06:24;;;;;;;;;2.00;2.00;;;;;20.23;52.70;101938.44;5002756;28;8926;-65
2022/07/30 09:08:50;;;;;;;;;1.50;1.50;;;;;20.33;52.86;101931.56;5015137;28;8821;-65
2022/07/30 09:11:17;;;;;;;;;2.75;2.00;;;;;20.39;52.67;101931.47;5000242;28;8845;-65
2022/07/30 09:13:43;;;;;;;;;2.25;2.25;;;;;20.42;52.99;101931.03;5010113;28;8861;-65
2022/07/30 09:16:24;;;;;;;;;2.00;2.00;;;;;20.46;52.66;101934.13;4997289;28;8821;-65
2022/07/30 09:18:54;;;;;;;;;2.00;2.00;;;;;20.55;52.43;101931.91;4991802;28;8857;-66
2022/07/30 09:21:23;;;;;;;;;3.25;2.00;;;;;20.61;51.64;101930.97;5002712;28;8827;-65
2022/07/30 09:24:02;;;;;;;;;2.00;2.00;;;;;20.66;51.63;101936.56;4958030;28;8817;-65
2022/07/30 09:27:01;;;;;;;;;2.00;2.00;;;;;20.66;51.89;101925.63;5004362;28;8828;-65
2022/07/30 09:29:57;;;;;;;;;2.00;2.00;;;;;20.64;51.36;101936.81;5014115;28;8809;-65
2022/07/30 09:32:53;;;;;;;;;3.50;3.50;;;;;20.77;51.06;101934.94;5014707;28;8812;-65
2022/07/30 09:35:39;;;;;;;;;3.00;2.50;;;;;20.82;50.85;101941.34;5004159;28;8805;-65
2022/07/30 09:38:09;;;;;;;;;1.00;1.00;;;;;20.88;50.62;101934.13;4994114;28;8948;-65
2022/07/30 09:40:52;;;;;;;;;1.75;1.50;;;;;20.94;50.23;101933.16;4993990;28;8939;-64
2022/07/30 09:43:46;;;;;;;;;2.00;2.00;;;;;20.98;50.40;101929.72;4992811;28;8823;-67
2022/07/30 09:46:41;;;;;;;;;2.00;2.00;;;;;21.03;48.56;101918.06;4992358;28;8842;-64
2022/07/30 09:49:17;;;;;;;;;2.00;2.00;;;;;21.09;48.29;101914.34;4976465;28;8925;-64
2022/07/30 09:51:46;;;;;;;;;1.00;1.00;;;;;21.12;48.44;101919.38;5012351;28;8821;-65
2022/07/30 09:54:22;;;;;;;;;2.25;2.25;;;;;21.11;47.88;101916.88;4995821;28;8872;-65
2022/07/30 09:57:08;;;;;;;;;2.75;2.75;;;;;21.07;47.35;101921.16;4996174;28;8933;-65
2022/07/30 10:00:15;;;;;;;;;1.00;1.00;;;;;21.06;46.88;101914.81;5012600;28;8865;-65
2022/07/30 10:02:50;;;;;;;;;0.75;0.75;;;;;21.11;46.97;101905.94;4975370;28;8893;-65
2022/07/30 10:05:36;;;;;;;;;1.00;1.00;;;;;21.20;47.18;101908.06;5001731;28;8823;-65
2022/07/30 10:08:06;;;;;;;;;2.00;2.00;;;;;21.26;46.74;101908.16;4988762;28;8859;-65
2022/07/30 10:10:46;;;;;;;;;0.25;0.25;;;;;21.32;47.05;101909.94;4981676;28;8874;-65
2022/07/30 10:13:18;;;;;;;;;1.00;1.00;;;;;21.41;47.03;101906.63;5007238;28;8823;-65
2022/07/30 10:15:48;;;;;;;;;2.00;2.00;;;;;21.52;46.24;101912.34;4975426;28;8810;-66
2022/07/30 10:18:15;;;;;;;;;1.00;1.00;;;;;21.59;45.81;101916.63;4982441;28;8929;-66
2022/07/30 10:20:44;;;;;;;;;1.00;1.00;;;;;21.60;46.21;101914.72;5005290;28;8877;-65
2022/07/30 10:23:46;;;;;;;;;1.00;1.00;;;;;21.63;45.72;101914.19;4977805;28;8834;-66
2022/07/30 10:26:35;;;;;;;;;1.75;1.75;;;;;21.54;46.09;101916.47;4988582;28;8807;-65
2022/07/30 10:29:41;;;;;;;;;1.00;1.00;;;;;21.56;46.13;101922.56;4982836;28;8837;-66
2022/07/30 10:32:08;;;;;;;;;2.00;2.00;;;;;21.66;46.03;101919.19;4985617;28;8825;-66
2022/07/30 10:34:37;;;;;;;;;2.00;2.00;;;;;21.76;45.69;101926.81;4989819;28;8831;-65
2022/07/30 10:37:09;;;;;;;;;2.00;2.00;;;;;21.81;45.82;101919.53;4990504;28;8938;-65
2022/07/30 10:40:34;;;;;;;;;1.00;1.00;;;;;21.93;45.78;101927.72;4974153;28;8821;-66
2022/07/30 10:43:42;;;;;;;;;0.50;0.50;;;;;22.04;44.90;101924.09;4956800;28;8891;-65
2022/07/30 10:46:42;;;;;;;;;1.00;1.00;;;;;22.04;44.87;101917.75;4998567;28;8825;-65
2022/07/30 10:49:14;;;;;;;;;1.00;1.00;;;;;22.03;45.11;101916.94;5000528;28;8939;-66
2022/07/30 10:51:51;;;;;;;;;1.00;1.00;;;;;22.02;45.58;101928.97;4993818;28;8861;-65
2022/07/30 10:54:32;;;;;;;;;1.00;1.00;;;;;22.09;45.47;101921.44;4997236;28;8825;-65
2022/07/30 10:57:13;;;;;;;;;0.25;0.25;;;;;22.12;45.50;101918.22;4977334;28;8877;-65
2022/07/30 10:59:48;;;;;;;;;0.00;0.00;;;;;22.17;45.16;101923.84;4998636;28;8844;-65
2022/07/30 11:02:17;;;;;;;;;1.00;1.00;;;;;22.33;44.99;101919.47;4998340;28;8831;-66
2022/07/30 11:04:45;;;;;;;;;1.00;1.00;;;;;22.47;44.62;101922.72;4967886;28;8831;-65
2022/07/30 11:07:21;;;;;;;;;0.00;0.00;;;;;22.45;43.79;101922.97;4984567;28;8825;-66
2022/07/30 11:09:50;;;;;;;;;1.00;1.00;;;;;22.44;43.99;101918.56;4977606;28;8841;-65
2022/07/30 11:12:40;;;;;;;;;1.75;1.00;;;;;22.41;43.85;101920.97;4977942;28;8837;-66
2022/07/30 11:15:48;;;;;;;;;1.00;1.00;;;;;22.43;43.81;101907.81;4996444;28;8817;-66
2022/07/30 11:18:15;;;;;;;;;1.00;1.00;;;;;22.43;44.63;101910.56;4992808;28;8819;-65
2022/07/30 11:21:02;;;;;;;;;0.00;0.00;;;;;22.55;44.57;101916.00;4998946;28;8826;-66
2022/07/30 11:23:36;;;;;;;;;1.00;1.00;;;;;22.58;44.50;101916.34;4998151;28;8834;-66
2022/07/30 11:26:05;;;;;;;;;1.50;1.50;;;;;22.61;44.44;101915.00;4996069;28;8866;-66
2022/07/30 11:28:37;;;;;;;;;1.00;1.00;;;;;22.59;44.13;101912.50;5011576;28;8890;-65
2022/07/30 11:31:25;;;;;;;;;1.00;1.00;;;;;22.61;43.47;101910.34;5001134;28;8829;-64
2022/07/30 11:34:17;;;;;;;;;2.00;2.00;;;;;22.61;44.12;101912.28;4997815;28;9652;-65
2022/07/30 11:37:03;;;;;;;;;1.25;1.25;;;;;22.60;44.36;101911.41;5003962;28;8843;-66
2022/07/30 11:39:56;;;;;;;;;0.25;0.25;;;;;22.65;44.48;101910.69;4995439;28;8823;-65
2022/07/30 11:42:27;;;;;;;;;1.00;1.00;;;;;22.70;43.93;101913.50;4997306;28;8926;-65
2022/07/30 11:45:15;;;;;;;;;1.00;1.00;;;;;22.70;44.54;101917.09;4995578;28;8825;-65
2022/07/30 11:47:46;;;;;;;;;1.25;1.25;;;;;22.69;44.49;101918.19;4982620;28;8813;-68
2022/07/30 11:50:24;;;;;;;;;1.75;1.75;;;;;22.67;44.77;101914.84;4988411;28;8839;-66
2022/07/30 11:53:02;;;;;;;;;2.25;2.25;;;;;22.60;44.61;101914.16;4996593;28;9609;-65
2022/07/30 11:55:37;;;;;;;;;1.00;1.00;;;;;22.70;44.58;101914.34;4996561;28;8972;-65
2022/07/30 11:58:07;;;;;;;;;3.00;3.00;;;;;22.76;44.61;101912.50;4995151;28;8929;-65
2022/07/30 12:00:39;;;;;;;;;2.00;2.00;;;;;22.78;44.69;101910.34;4999551;28;8949;-65
2022/07/30 12:03:11;;;;;;;;;2.25;2.00;;;;;22.81;44.68;101909.00;5001882;28;8819;-65
2022/07/30 12:05:38;;;;;;;;;2.00;2.00;;;;;22.81;44.80;101915.34;5013235;28;8892;-66